createdAt,value
2022-09-17T00:01:00.351Z,78.49
2022-09-17T00:03:28.635Z,78.04
2022-09-17T00:06:03.371Z,78.44
2022-09-17T00:08:30.648Z,78.45
2022-09-17T00:10:57.527Z,78.08
2022-09-17T00:13:24.741Z,78.43
2022-09-17T00:15:52.457Z,78.60
2022-09-17T00:18:19.286Z,78.12
2022-09-17T00:20:47.381Z,77.89
2022-09-17T00:23:14.892Z,78.08
2022-09-17T00:25:43.882Z,78.42
2022-09-17T00:28:12.114Z,78.18
2022-09-17T00:30:44.090Z,78.28
2022-09-17T00:33:19.795Z,78.58
2022-09-17T00:35:58.861Z,78.01
2022-09-17T00:38:25.376Z,78.21
2022-09-17T00:40:51.889Z,78.26
2022-09-17T00:43:46.421Z,78.45
2022-09-17T00:46:25.436Z,77.80
2022-09-17T00:48:54.638Z,78.52
2022-09-17T00:51:49.674Z,78.04
2022-09-17T00:54:16.633Z,78.35
2022-09-17T00:56:44.066Z,78.24
2022-09-17T00:59:11.506Z,77.76
2022-09-17T01:01:39.040Z,78.46
2022-09-17T01:04:05.677Z,78.51
2022-09-17T01:06:38.533Z,78.23
2022-09-17T01:10:02.578Z,78.02
2022-09-17T01:13:06.345Z,78.55
2022-09-17T01:15:45.538Z,78.52
2022-09-17T01:18:30.598Z,78.48
2022-09-17T01:21:32.565Z,79.24
2022-09-17T01:24:17.105Z,78.82
2022-09-17T01:26:46.605Z,78.75
2022-09-17T01:29:33.277Z,79.35
2022-09-17T01:32:09.678Z,78.64
2022-09-17T01:34:58.740Z,79.02
2022-09-17T01:37:36.519Z,79.13
2022-09-17T01:40:30.361Z,78.67
2022-09-17T01:43:04.723Z,78.72
2022-09-17T01:45:35.774Z,78.67
2022-09-17T01:48:18.705Z,79.23
2022-09-17T01:51:08.454Z,79.29
2022-09-17T01:53:57.854Z,79.03
2022-09-17T01:56:31.669Z,78.83
2022-09-17T01:59:12.273Z,78.84
2022-09-17T02:01:41.064Z,78.69
2022-09-17T02:04:23.123Z,79.09
2022-09-17T02:06:59.038Z,78.92
2022-09-17T02:09:45.799Z,79.05
2022-09-17T02:12:18.267Z,79.42
2022-09-17T02:14:50.532Z,79.31
2022-09-17T02:17:27.287Z,79.05
2022-09-17T02:19:55.646Z,79.05
2022-09-17T02:22:39.868Z,79.72
2022-09-17T02:25:09.294Z,79.70
2022-09-17T02:27:40.325Z,79.14
2022-09-17T02:30:07.235Z,79.67
2022-09-17T02:32:33.923Z,79.63
2022-09-17T02:35:00.725Z,79.31
2022-09-17T02:37:27.751Z,79.34
2022-09-17T02:39:54.819Z,79.21
2022-09-17T02:42:23.077Z,79.96
2022-09-17T02:45:27.148Z,79.42
2022-09-17T02:48:11.844Z,79.10
2022-09-17T02:51:02.422Z,79.03
2022-09-17T02:53:53.305Z,79.51
2022-09-17T02:56:49.038Z,78.85
2022-09-17T02:59:32.246Z,79.41
2022-09-17T03:02:05.480Z,79.49
2022-09-17T03:04:33.894Z,79.40
2022-09-17T03:07:06.324Z,79.77
2022-09-17T03:09:34.117Z,79.54
2022-09-17T03:12:00.912Z,79.39
2022-09-17T03:14:27.303Z,79.49
2022-09-17T03:16:53.757Z,79.61
2022-09-17T03:19:20.198Z,79.56
2022-09-17T03:21:46.838Z,79.53
2022-09-17T03:24:13.245Z,79.54
2022-09-17T03:26:39.605Z,79.56
2022-09-17T03:29:06.171Z,79.48
2022-09-17T03:31:32.693Z,79.77
2022-09-17T03:33:59.080Z,79.71
2022-09-17T03:36:25.627Z,79.85
2022-09-17T03:38:58.606Z,79.54
2022-09-17T03:41:25.922Z,79.63
2022-09-17T03:43:53.248Z,79.45
2022-09-17T03:46:19.815Z,79.19
2022-09-17T03:48:49.950Z,79.75
2022-09-17T03:51:16.456Z,79.89
2022-09-17T03:53:43.060Z,80.15
2022-09-17T03:56:09.793Z,79.95
2022-09-17T03:58:36.197Z,80.08
2022-09-17T04:01:04.028Z,79.88
2022-09-17T04:03:30.634Z,80.21
2022-09-17T04:05:56.988Z,80.30
2022-09-17T04:08:23.723Z,79.84
2022-09-17T04:10:51.842Z,80.23
2022-09-17T04:13:19.073Z,80.09
2022-09-17T04:15:46.595Z,80.20
2022-09-17T04:18:13.751Z,80.47
2022-09-17T04:20:40.347Z,80.25
2022-09-17T04:23:09.607Z,80.54
2022-09-17T04:25:35.999Z,80.26
2022-09-17T04:28:02.663Z,80.54
2022-09-17T04:30:28.995Z,80.36
2022-09-17T04:32:55.364Z,80.06
2022-09-17T04:35:21.814Z,80.29
2022-09-17T04:37:55.575Z,79.86
2022-09-17T04:40:23.244Z,80.01
2022-09-17T04:42:53.908Z,80.31
2022-09-17T04:45:20.467Z,79.80
2022-09-17T04:47:46.906Z,80.60
2022-09-17T04:50:14.003Z,80.33
2022-09-17T04:52:44.532Z,79.71
2022-09-17T04:55:11.960Z,79.92
2022-09-17T04:57:38.964Z,80.05
2022-09-17T05:00:09.931Z,79.89
2022-09-17T05:02:36.288Z,80.17
2022-09-17T05:05:02.783Z,80.63
2022-09-17T05:07:29.119Z,80.17
2022-09-17T05:09:55.516Z,80.11
2022-09-17T05:12:25.560Z,80.38
2022-09-17T05:14:52.186Z,80.14
2022-09-17T05:17:18.531Z,80.30
2022-09-17T05:19:44.895Z,79.90
2022-09-17T05:22:11.257Z,80.00
2022-09-17T05:24:39.297Z,79.92
2022-09-17T05:27:07.019Z,80.58
2022-09-17T05:29:33.399Z,80.35
2022-09-17T05:31:59.732Z,79.99
2022-09-17T05:34:26.095Z,80.37
2022-09-17T05:36:52.469Z,79.74
2022-09-17T05:39:21.272Z,80.23
2022-09-17T05:41:47.636Z,79.96
2022-09-17T05:44:17.951Z,79.81
2022-09-17T05:46:45.519Z,80.53
2022-09-17T05:49:12.851Z,79.58
2022-09-17T05:51:39.214Z,80.23
2022-09-17T05:54:05.836Z,79.82
2022-09-17T05:56:32.271Z,79.80
2022-09-17T05:58:58.781Z,80.10
2022-09-17T06:01:25.375Z,79.71
2022-09-17T06:03:51.880Z,80.23
2022-09-17T06:09:10.670Z,79.86
2022-09-17T06:11:37.381Z,80.06
2022-09-17T06:14:04.111Z,79.50
2022-09-17T06:16:30.648Z,79.22
2022-09-17T06:18:57.034Z,79.78
2022-09-17T06:21:23.506Z,79.50
2022-09-17T06:23:50.481Z,79.82
2022-09-17T06:26:17.029Z,79.34
2022-09-17T06:28:43.484Z,80.06
2022-09-17T06:31:11.201Z,79.92
2022-09-17T06:33:37.855Z,78.98
2022-09-17T06:36:13.171Z,79.02
2022-09-17T06:38:40.538Z,79.90
2022-09-17T06:41:06.976Z,79.60
2022-09-17T06:43:33.771Z,79.51
2022-09-17T06:46:02.500Z,79.55
2022-09-17T06:48:30.303Z,79.77
2022-09-17T06:51:02.654Z,79.91
2022-09-17T06:53:29.627Z,79.07
2022-09-17T06:56:06.032Z,79.07
2022-09-17T06:58:33.304Z,79.51
2022-09-17T07:01:02.361Z,79.56
2022-09-17T07:03:30.379Z,79.18
2022-09-17T07:05:57.671Z,79.19
2022-09-17T07:08:24.505Z,79.81
2022-09-17T07:10:50.901Z,79.63
2022-09-17T07:13:17.539Z,80.05
2022-09-17T07:15:44.099Z,79.67
2022-09-17T07:18:11.801Z,79.83
2022-09-17T07:20:39.127Z,80.25
2022-09-17T07:23:05.829Z,79.46
2022-09-17T07:25:32.230Z,80.20
2022-09-17T07:27:59.885Z,79.53
2022-09-17T07:30:26.432Z,80.15
2022-09-17T07:32:53.268Z,80.58
2022-09-17T07:35:19.706Z,79.50
2022-09-17T07:37:47.440Z,80.09
2022-09-17T07:40:13.871Z,79.52
2022-09-17T07:42:40.699Z,80.50
2022-09-17T07:45:07.591Z,80.44
2022-09-17T07:47:38.789Z,80.40
2022-09-17T07:50:05.453Z,80.03
2022-09-17T07:52:31.810Z,80.65
2022-09-17T07:54:58.201Z,80.81
2022-09-17T07:57:24.585Z,81.28
2022-09-17T07:59:50.963Z,81.33
2022-09-17T08:02:21.874Z,81.09
2022-09-17T08:04:50.668Z,81.19
2022-09-17T08:07:17.185Z,81.29
2022-09-17T08:09:43.553Z,80.90
2022-09-17T08:12:09.899Z,80.66
2022-09-17T08:14:36.267Z,80.84
2022-09-17T08:17:02.665Z,81.11
2022-09-17T08:19:32.821Z,81.46
2022-09-17T08:21:59.327Z,81.13
2022-09-17T08:24:25.906Z,81.32
2022-09-17T08:26:52.385Z,80.97
2022-09-17T08:29:18.992Z,81.42
2022-09-17T08:31:45.498Z,81.20
2022-09-17T08:34:11.966Z,80.44
2022-09-17T08:36:38.669Z,80.82
2022-09-17T08:39:05.412Z,80.74
2022-09-17T08:42:17.751Z,80.41
2022-09-17T08:44:47.424Z,81.11
2022-09-17T08:47:30.872Z,80.61
2022-09-17T08:50:00.421Z,81.09
2022-09-17T08:53:04.313Z,80.98
2022-09-17T08:56:11.064Z,79.79
2022-09-17T08:59:02.036Z,79.12
2022-09-17T09:01:34.652Z,79.22
2022-09-17T09:04:58.361Z,78.87
2022-09-17T09:07:31.295Z,79.14
2022-09-17T09:10:04.283Z,79.83
2022-09-17T09:12:35.518Z,80.19
2022-09-17T09:15:27.514Z,79.53
2022-09-17T09:17:54.666Z,80.04
2022-09-17T09:20:47.694Z,80.25
2022-09-17T09:23:32.387Z,79.36
2022-09-17T09:26:18.256Z,79.53
2022-09-17T09:29:04.241Z,79.29
2022-09-17T09:31:48.663Z,79.24
2022-09-17T09:34:16.176Z,79.59
2022-09-17T09:36:42.644Z,79.40
2022-09-17T09:39:25.432Z,79.66
2022-09-17T09:44:39.760Z,78.30
2022-09-17T09:47:16.832Z,78.76
2022-09-17T09:49:43.290Z,79.11
2022-09-17T09:52:28.366Z,79.20
2022-09-17T09:55:13.228Z,79.11
2022-09-17T09:57:48.540Z,78.53
2022-09-17T10:00:25.915Z,79.42
2022-09-17T10:03:03.015Z,78.99
2022-09-17T10:05:29.828Z,78.44
2022-09-17T10:07:57.084Z,79.28
2022-09-17T10:10:23.560Z,78.73
2022-09-17T10:13:05.591Z,78.59
2022-09-17T10:15:32.000Z,79.00
2022-09-17T10:18:21.407Z,78.37
2022-09-17T10:20:59.566Z,78.54
2022-09-17T10:23:29.227Z,78.78
2022-09-17T10:25:56.271Z,78.49
2022-09-17T10:29:01.859Z,78.23
2022-09-17T10:31:45.734Z,78.50
2022-09-17T10:34:27.135Z,78.10
2022-09-17T10:36:55.989Z,76.96
2022-09-17T10:39:25.132Z,77.04
2022-09-17T10:42:03.553Z,77.05
2022-09-17T10:44:32.396Z,75.61
2022-09-17T10:47:11.889Z,74.64
2022-09-17T10:49:42.456Z,74.30
2022-09-17T10:52:14.154Z,74.57
2022-09-17T10:55:05.229Z,74.93
2022-09-17T10:57:50.454Z,74.03
2022-09-17T11:00:20.762Z,73.41
2022-09-17T11:03:28.756Z,73.01
2022-09-17T11:06:14.686Z,72.55
2022-09-17T11:09:02.901Z,72.44
2022-09-17T11:11:57.315Z,72.32
2022-09-17T11:14:44.431Z,71.93
2022-09-17T11:17:36.618Z,71.58
2022-09-17T11:20:29.055Z,71.89
2022-09-17T11:23:35.406Z,71.21
2022-09-17T11:26:01.711Z,71.05
2022-09-17T11:28:37.225Z,71.49
2022-09-17T11:31:34.589Z,70.46
2022-09-17T11:34:28.825Z,69.84
2022-09-17T11:37:20.192Z,70.84
2022-09-17T11:39:49.142Z,69.66
2022-09-17T11:42:22.418Z,70.08
2022-09-17T11:44:57.604Z,70.03
2022-09-17T11:47:27.746Z,70.43
2022-09-17T11:50:01.521Z,70.04
2022-09-17T11:52:34.001Z,70.05
2022-09-17T11:55:18.013Z,70.04
2022-09-17T11:57:44.653Z,69.22
2022-09-17T12:00:19.875Z,69.47
2022-09-17T12:03:28.852Z,69.60
2022-09-17T12:05:58.440Z,69.52
2022-09-17T12:08:38.945Z,69.76
2022-09-17T12:11:14.633Z,70.67
2022-09-17T12:13:46.219Z,70.85
2022-09-17T12:16:31.188Z,71.11
2022-09-17T12:19:09.923Z,71.30
2022-09-17T12:21:41.821Z,70.31
2022-09-17T12:24:15.585Z,70.21
2022-09-17T12:27:00.622Z,69.19
2022-09-17T12:29:33.389Z,69.72
2022-09-17T12:32:44.656Z,70.05
2022-09-17T12:35:46.443Z,70.86
2022-09-17T12:38:51.290Z,71.26
2022-09-17T12:41:31.143Z,70.47
2022-09-17T12:44:24.487Z,69.40
2022-09-17T12:47:24.748Z,69.55
2022-09-17T12:50:04.352Z,69.91
2022-09-17T12:52:36.824Z,70.07
2022-09-17T12:55:12.256Z,70.91
2022-09-17T12:58:00.285Z,70.73
2022-09-17T13:00:27.183Z,70.34
2022-09-17T13:03:30.753Z,69.58
2022-09-17T13:06:23.278Z,70.86
2022-09-17T13:09:09.570Z,70.85
2022-09-17T13:11:47.933Z,71.34
2022-09-17T13:14:58.080Z,70.67
2022-09-17T13:18:06.111Z,71.15
2022-09-17T13:20:43.511Z,71.22
2022-09-17T13:23:12.544Z,70.62
2022-09-17T13:25:51.365Z,71.41
2022-09-17T13:28:17.737Z,70.35
2022-09-17T13:30:59.793Z,70.18
2022-09-17T13:33:52.944Z,69.46
2022-09-17T13:36:38.317Z,71.16
2022-09-17T13:39:07.654Z,70.75
2022-09-17T13:41:41.547Z,71.09
2022-09-17T13:44:10.716Z,70.82
2022-09-17T13:46:38.626Z,69.75
2022-09-17T13:49:14.483Z,70.03
2022-09-17T13:51:40.759Z,70.33
2022-09-17T13:54:10.287Z,70.11
2022-09-17T13:56:50.074Z,69.43
2022-09-17T13:59:20.711Z,70.46
2022-09-17T14:01:56.280Z,70.14
2022-09-17T14:04:46.997Z,70.03
2022-09-17T14:07:23.482Z,70.12
2022-09-17T14:09:58.477Z,70.04
2022-09-17T14:12:41.151Z,70.31
2022-09-17T14:15:39.560Z,69.77
2022-09-17T14:18:27.645Z,70.72
2022-09-17T14:21:12.557Z,70.54
2022-09-17T14:23:44.921Z,70.03
2022-09-17T14:26:28.492Z,69.73
2022-09-17T14:29:23.533Z,68.86
2022-09-17T14:31:50.064Z,68.91
2022-09-17T14:34:21.467Z,67.91
2022-09-17T14:36:49.391Z,68.26
2022-09-17T14:39:22.048Z,67.83
2022-09-17T14:41:50.110Z,67.26
2022-09-17T14:44:21.863Z,66.60
2022-09-17T14:47:00.729Z,67.76
2022-09-17T14:49:29.195Z,67.70
2022-09-17T14:51:57.358Z,68.01
2022-09-17T14:54:33.658Z,68.38
2022-09-17T14:57:28.384Z,68.86
2022-09-17T14:59:56.587Z,69.05
2022-09-17T15:02:45.328Z,68.71
2022-09-17T15:05:24.100Z,68.03
2022-09-17T15:07:50.651Z,67.72
2022-09-17T15:10:22.019Z,67.17
2022-09-17T15:12:50.279Z,67.59
2022-09-17T15:15:26.278Z,67.50
2022-09-17T15:17:54.323Z,68.03
2022-09-17T15:20:28.444Z,67.69
2022-09-17T15:22:59.359Z,68.29
2022-09-17T15:25:30.589Z,67.69
2022-09-17T15:28:01.788Z,68.83
2022-09-17T15:30:28.404Z,68.21
2022-09-17T15:32:57.701Z,68.60
2022-09-17T15:35:30.347Z,68.67
2022-09-17T15:38:23.131Z,69.01
2022-09-17T15:40:50.686Z,68.55
2022-09-17T15:43:30.775Z,68.44
2022-09-17T15:46:02.376Z,68.42
2022-09-17T15:48:28.707Z,68.37
2022-09-17T15:51:00.344Z,68.57
2022-09-17T15:53:30.071Z,68.91
2022-09-17T15:56:15.602Z,68.46
2022-09-17T15:58:41.923Z,68.46
2022-09-17T16:01:11.631Z,68.40
2022-09-17T16:03:40.787Z,68.45
2022-09-17T16:06:19.428Z,68.61
2022-09-17T16:08:50.983Z,68.74
2022-09-17T16:11:19.117Z,68.73
2022-09-17T16:13:50.088Z,68.84
2022-09-17T16:16:19.551Z,68.94
2022-09-17T16:18:46.545Z,69.03
2022-09-17T16:21:14.803Z,69.04
2022-09-17T16:23:42.218Z,68.75
2022-09-17T16:26:14.395Z,69.13
2022-09-17T16:28:41.374Z,68.34
2022-09-17T16:31:12.486Z,68.31
2022-09-17T16:33:39.383Z,68.61
2022-09-17T16:36:06.086Z,68.36
2022-09-17T16:38:33.150Z,68.38
2022-09-17T16:40:59.540Z,68.23
2022-09-17T16:43:25.940Z,67.72
2022-09-17T16:46:10.569Z,68.56
2022-09-17T16:48:37.976Z,68.35
2022-09-17T16:51:27.714Z,68.42
2022-09-17T16:53:54.111Z,68.08
2022-09-17T16:56:20.726Z,68.44
2022-09-17T16:58:47.469Z,68.55
2022-09-17T17:01:16.180Z,68.23
2022-09-17T17:03:42.868Z,68.67
2022-09-17T17:06:17.228Z,68.94
2022-09-17T17:08:43.570Z,69.18
2022-09-17T17:11:10.004Z,68.55
2022-09-17T17:13:36.543Z,69.15
2022-09-17T17:16:10.939Z,68.81
2022-09-17T17:18:37.885Z,68.47
2022-09-17T17:21:08.912Z,68.71
2022-09-17T17:23:35.589Z,70.04
2022-09-17T17:26:03.581Z,70.95
2022-09-17T17:28:35.515Z,71.80
2022-09-17T17:31:03.319Z,72.23
2022-09-17T17:33:30.178Z,73.51
2022-09-17T17:36:04.136Z,73.54
2022-09-17T17:38:34.650Z,74.06
2022-09-17T17:41:07.178Z,73.95
2022-09-17T17:43:34.272Z,74.32
2022-09-17T17:46:02.311Z,74.41
2022-09-17T17:48:28.775Z,74.79
2022-09-17T17:50:56.916Z,74.83
2022-09-17T17:53:23.557Z,74.74
2022-09-17T17:56:16.085Z,75.52
2022-09-17T17:58:42.569Z,75.36
2022-09-17T18:01:29.847Z,75.80
2022-09-17T18:04:07.846Z,75.60
2022-09-17T18:06:34.813Z,75.59
2022-09-17T18:09:01.796Z,75.36
2022-09-17T18:11:28.534Z,75.35
2022-09-17T18:13:57.007Z,76.34
2022-09-17T18:16:28.471Z,76.13
2022-09-17T18:18:57.899Z,75.90
2022-09-17T18:21:25.451Z,75.81
2022-09-17T18:23:52.329Z,76.44
2022-09-17T18:26:23.754Z,76.26
2022-09-17T18:28:51.460Z,76.49
2022-09-17T18:31:22.797Z,77.27
2022-09-17T18:33:57.650Z,76.51
2022-09-17T18:36:25.794Z,77.35
2022-09-17T18:39:56.385Z,77.60
2022-09-17T18:41:48.464Z,77.54
2022-09-17T18:44:15.244Z,77.44
2022-09-17T18:46:42.532Z,77.86
2022-09-17T18:49:09.077Z,78.32
2022-09-17T18:51:35.459Z,78.36
2022-09-17T18:54:03.829Z,77.95
2022-09-17T18:56:33.258Z,77.77
2022-09-17T18:59:03.362Z,78.81
2022-09-17T19:01:33.702Z,78.33
2022-09-17T19:04:00.209Z,78.35
2022-09-17T19:06:27.763Z,78.46
2022-09-17T19:08:55.777Z,78.26
2022-09-17T19:11:22.229Z,78.97
2022-09-17T19:13:50.136Z,79.54
2022-09-17T19:16:17.520Z,78.90
2022-09-17T19:18:44.212Z,79.01
2022-09-17T19:21:12.130Z,79.25
2022-09-17T19:23:43.259Z,78.64
2022-09-17T19:26:16.848Z,80.09
2022-09-17T19:28:43.617Z,79.21
2022-09-17T19:31:22.648Z,79.70
2022-09-17T19:33:50.442Z,79.34
2022-09-17T19:36:17.948Z,80.06
2022-09-17T19:38:44.812Z,79.70
2022-09-17T19:41:17.155Z,79.63
2022-09-17T19:43:45.042Z,79.97
2022-09-17T19:46:30.329Z,80.33
2022-09-17T19:48:58.229Z,80.29
2022-09-17T19:51:26.775Z,79.62
2022-09-17T19:53:53.714Z,80.47
2022-09-17T19:56:23.389Z,79.79
2022-09-17T19:58:50.514Z,80.26
2022-09-17T20:01:17.574Z,80.26
2022-09-17T20:03:45.416Z,79.72
2022-09-17T20:06:14.694Z,79.73
2022-09-17T20:08:47.202Z,80.34
2022-09-17T20:11:14.799Z,79.60
2022-09-17T20:13:41.436Z,80.05
2022-09-17T20:16:11.196Z,79.86
2022-09-17T20:18:37.797Z,79.64
2022-09-17T20:21:19.697Z,80.45
2022-09-17T20:23:46.255Z,80.17
2022-09-17T20:26:13.211Z,79.52
2022-09-17T20:28:40.011Z,79.82
2022-09-17T20:31:18.730Z,79.50
2022-09-17T20:33:45.656Z,79.94
2022-09-17T20:36:17.438Z,79.29
2022-09-17T20:39:10.683Z,79.60
2022-09-17T20:41:31.792Z,80.09
2022-09-17T20:43:58.530Z,80.11
2022-09-17T20:46:29.219Z,80.31
2022-09-17T20:48:57.564Z,80.44
2022-09-17T20:51:27.468Z,79.51
2022-09-17T20:53:54.014Z,80.12
2022-09-17T20:56:22.862Z,80.32
2022-09-17T20:59:03.943Z,80.48
2022-09-17T21:01:32.689Z,79.77
2022-09-17T21:04:01.279Z,80.08
2022-09-17T21:06:33.675Z,80.69
2022-09-17T21:09:00.237Z,81.22
2022-09-17T21:11:27.961Z,80.76
2022-09-17T21:13:54.564Z,81.61
2022-09-17T21:16:21.207Z,81.29
2022-09-17T21:18:47.996Z,81.56
2022-09-17T21:21:17.392Z,82.08
2022-09-17T21:23:44.047Z,81.98
2022-09-17T21:26:12.220Z,81.49
2022-09-17T21:28:39.765Z,81.94
2022-09-17T21:31:07.415Z,81.28
2022-09-17T21:33:33.886Z,81.36
2022-09-17T21:36:20.466Z,82.04
2022-09-17T21:38:51.756Z,81.47
2022-09-17T21:41:18.425Z,81.47
2022-09-17T21:43:45.286Z,81.42
2022-09-17T21:46:20.806Z,82.41
2022-09-17T21:48:59.801Z,82.34
2022-09-17T21:51:37.484Z,81.42
2022-09-17T21:54:09.763Z,82.43
2022-09-17T21:56:36.903Z,81.76
2022-09-17T21:59:06.102Z,82.37
2022-09-17T22:01:41.203Z,81.75
2022-09-17T22:04:22.117Z,82.12
2022-09-17T22:06:49.818Z,81.68
2022-09-17T22:09:22.654Z,82.35
2022-09-17T22:11:50.429Z,82.29
2022-09-17T22:14:26.742Z,82.38
2022-09-17T22:16:55.496Z,82.32
2022-09-17T22:19:24.459Z,82.08
2022-09-17T22:21:53.396Z,82.32
2022-09-17T22:24:21.171Z,82.45
2022-09-17T22:26:55.735Z,82.96
2022-09-17T22:29:23.816Z,82.56
2022-09-17T22:31:50.483Z,82.73
2022-09-17T22:34:19.679Z,82.93
2022-09-17T22:36:46.356Z,82.78
2022-09-17T22:39:12.807Z,82.55
2022-09-17T22:41:45.657Z,82.70
2022-09-17T22:44:15.593Z,82.99
2022-09-17T22:46:42.776Z,82.68
2022-09-17T22:49:10.850Z,82.44
2022-09-17T22:51:38.401Z,82.94
2022-09-17T22:54:06.116Z,83.29
2022-09-17T22:56:34.262Z,82.45
2022-09-17T22:59:00.719Z,83.18
2022-09-17T23:01:30.167Z,82.80
2022-09-17T23:03:58.123Z,83.25
2022-09-17T23:06:28.167Z,83.16
2022-09-17T23:08:55.588Z,83.15
2022-09-17T23:11:27.947Z,83.05
2022-09-17T23:14:02.131Z,83.70
2022-09-17T23:16:33.215Z,82.70
2022-09-17T23:18:59.665Z,83.19
2022-09-17T23:21:26.032Z,83.05
2022-09-17T23:23:52.384Z,83.28
2022-09-17T23:26:21.680Z,83.39
2022-09-17T23:28:48.567Z,83.05
2022-09-17T23:31:26.763Z,83.00
2022-09-17T23:33:54.339Z,83.43
2022-09-17T23:36:30.875Z,83.35
2022-09-17T23:38:58.850Z,82.86
2022-09-17T23:41:32.646Z,83.37
2022-09-17T23:44:01.942Z,83.08
2022-09-17T23:46:31.171Z,82.97
2022-09-17T23:48:58.151Z,83.56
2022-09-17T23:51:26.537Z,82.89
2022-09-17T23:53:54.398Z,83.80
2022-09-17T23:56:23.394Z,83.13
2022-09-17T23:58:50.026Z,83.40
